METAR AND TAF INFORMATION
METAR FOR EPSY
ADDS - METARS form results

(0908 UTC 21 September 2019)
Data provider http://aviationweather.gov/metar/data/
 
METAR text: EPSY 210900Z 26006KT 200V310 9999 FEW002 BKN006 OVC012 13/12 Q1020
Conditions at: EPSY (SZYMANY , PL) observed 0900 UTC 21 September 2019
Temperature: 13.0°C (55°F)
Dewpoint: 12.0°C (54°F) [RH = 94%]
Pressure (altimeter): 30.12 inches Hg (1020.0 mb)
Winds: from the W (260 degrees) at 7 MPH (6 knots; 3.1 m/s)
Visibility: 6 or more miles (10+ km)
Ceiling: 600 feet AGL
Clouds: few clouds at 200 feet AGL
broken clouds at 600 feet AGL
overcast cloud deck at 1200 feet AGL
Weather: no significant weather observed at this time

METAR text: EPSY 210830Z 26006KT 230V300 6000 -RADZ BKN006 OVC013 13/12 Q1020
Conditions at: EPSY (SZYMANY , PL) observed 0830 UTC 21 September 2019
Temperature: 13.0°C (55°F)
Dewpoint: 12.0°C (54°F) [RH = 94%]
Pressure (altimeter): 30.12 inches Hg (1020.0 mb)
Winds: from the W (260 degrees) at 7 MPH (6 knots; 3.1 m/s)
Visibility: 4 miles ( 6 km)
Ceiling: 600 feet AGL
Clouds: broken clouds at 600 feet AGL
overcast cloud deck at 1300 feet AGL
Weather: -RA -DZ  (light rain, light drizzle)

Forecast for: EPSY (SZYMANY , PL)
Text: TAF EPSY 210830Z 2109/2118 26008KT 9999 SCT005 BKN010
Forecast period: 0900 to 1100 UTC 21 September 2019
Forecast type: FROM: standard forecast or significant change
Winds: from the W (260 degrees) at 9 MPH (8 knots; 4.1 m/s)
Visibility: 6 or more miles 10+ km)
Ceiling: 1000 feet AGL
Clouds: scattered clouds at 500 feet AGL
broken clouds at 1000 feet AGL
Weather: no significant weather forecast for this period
Text: TEMPO 2109/2111 OVC003
Forecast period: 0900 to 1100 UTC 21 September 2019
Forecast type: TEMPORARY: The following changes expected for less than half the time period
Visibility: missing
Ceiling: 300 feet AGL
Clouds: overcast cloud deck at 300 feet AGL
Weather: no significant weather forecast for this period
Text: BECMG 2111/2113 26014G24KT BKN015
Forecast period: 1100 to 1800 UTC 21 September 2019
Forecast type: BECOMING: Conditions expected to become as follows by 1300 UTC 21 September 2019
Winds: from the W (260 degrees) at 16 MPH (14 knots; 7.2 m/s)
gusting to 28 MPH (24 knots; 12.3 m/s)
Visibility: 6 or more miles 10+ km)
Ceiling: 1500 feet AGL
Clouds: broken clouds at 1500 feet AGL
Weather: no significant weather forecast for this period

 AIRPORT MAP

 RUNWAY INFORMATION
Runway 02 Runway length 6562 ft Runway width 197 ft
Runway elevation 438 ft Runway displaced threshold 0 ft Runway heading 19
Runway 20 Runway length 6562 ft Runway width 197 ft
Runway elevation 462 ft Runway displaced threshold 0 ft Runway heading 199

 AIRPORT FREQUENCIES
Type TWR Name SZCZYTNO I Frequency 118.025 MHZ

 AIRPORT NEAR NAVIGATION AIDS
Type NDB Name Szczytno Frequency 288 KHZ



Powered by Virtual Airlines Manager [v2.6.2]